sensor_id;sensor_type;location;lat;lon;timestamp;P1;durP1;ratioP1;P2;durP2;ratioP2
62050;SDS011;48008;51.204;6.766;2022-12-05T00:00:26;60.92;;;22.00;;
62050;SDS011;48008;51.204;6.766;2022-12-05T00:02:52;59.28;;;22.77;;
62050;SDS011;48008;51.204;6.766;2022-12-05T00:05:20;63.70;;;22.17;;
62050;SDS011;48008;51.204;6.766;2022-12-05T00:07:46;62.03;;;22.40;;
62050;SDS011;48008;51.204;6.766;2022-12-05T00:10:13;57.13;;;23.40;;
62050;SDS011;48008;51.204;6.766;2022-12-05T00:12:40;62.83;;;23.10;;
62050;SDS011;48008;51.204;6.766;2022-12-05T00:15:07;57.33;;;21.10;;
62050;SDS011;48008;51.204;6.766;2022-12-05T00:17:38;57.53;;;22.13;;
62050;SDS011;48008;51.204;6.766;2022-12-05T00:20:07;61.80;;;23.35;;
62050;SDS011;48008;51.204;6.766;2022-12-05T00:22:35;67.13;;;22.65;;
62050;SDS011;48008;51.204;6.766;2022-12-05T00:25:05;57.90;;;22.17;;
62050;SDS011;48008;51.204;6.766;2022-12-05T00:27:32;61.47;;;23.00;;
62050;SDS011;48008;51.204;6.766;2022-12-05T00:29:59;58.78;;;23.50;;
62050;SDS011;48008;51.204;6.766;2022-12-05T00:32:27;56.53;;;22.80;;
62050;SDS011;48008;51.204;6.766;2022-12-05T00:34:54;60.63;;;23.92;;
62050;SDS011;48008;51.204;6.766;2022-12-05T00:37:21;58.38;;;22.83;;
62050;SDS011;48008;51.204;6.766;2022-12-05T00:39:49;52.97;;;21.88;;
62050;SDS011;48008;51.204;6.766;2022-12-05T00:42:15;55.83;;;21.45;;
62050;SDS011;48008;51.204;6.766;2022-12-05T00:44:42;61.97;;;22.00;;
62050;SDS011;48008;51.204;6.766;2022-12-05T00:47:09;62.25;;;22.77;;
62050;SDS011;48008;51.204;6.766;2022-12-05T00:49:35;60.08;;;22.60;;
62050;SDS011;48008;51.204;6.766;2022-12-05T00:52:02;56.92;;;22.15;;
62050;SDS011;48008;51.204;6.766;2022-12-05T00:54:29;58.78;;;21.73;;
62050;SDS011;48008;51.204;6.766;2022-12-05T00:56:56;62.83;;;22.63;;
62050;SDS011;48008;51.204;6.766;2022-12-05T00:59:22;56.22;;;22.25;;
62050;SDS011;48008;51.204;6.766;2022-12-05T01:01:49;52.60;;;21.23;;
62050;SDS011;48008;51.204;6.766;2022-12-05T01:04:19;58.03;;;22.25;;
62050;SDS011;48008;51.204;6.766;2022-12-05T01:06:48;54.00;;;22.67;;
62050;SDS011;48008;51.204;6.766;2022-12-05T01:09:16;55.95;;;21.98;;
62050;SDS011;48008;51.204;6.766;2022-12-05T01:11:45;54.13;;;21.05;;
62050;SDS011;48008;51.204;6.766;2022-12-05T01:14:13;52.90;;;20.85;;
62050;SDS011;48008;51.204;6.766;2022-12-05T01:16:43;54.65;;;22.05;;
62050;SDS011;48008;51.204;6.766;2022-12-05T01:19:13;57.13;;;20.55;;
62050;SDS011;48008;51.204;6.766;2022-12-05T01:21:43;55.53;;;22.33;;
62050;SDS011;48008;51.204;6.766;2022-12-05T01:24:10;58.75;;;21.75;;
62050;SDS011;48008;51.204;6.766;2022-12-05T01:26:38;55.70;;;21.20;;
62050;SDS011;48008;51.204;6.766;2022-12-05T01:29:06;59.58;;;21.02;;
62050;SDS011;48008;51.204;6.766;2022-12-05T01:31:34;52.50;;;20.65;;
62050;SDS011;48008;51.204;6.766;2022-12-05T01:34:03;57.45;;;21.63;;
62050;SDS011;48008;51.204;6.766;2022-12-05T01:36:31;54.72;;;21.27;;
62050;SDS011;48008;51.204;6.766;2022-12-05T01:38:58;52.35;;;20.00;;
62050;SDS011;48008;51.204;6.766;2022-12-05T01:41:27;53.85;;;21.08;;
62050;SDS011;48008;51.204;6.766;2022-12-05T01:46:34;50.00;;;20.10;;
62050;SDS011;48008;51.204;6.766;2022-12-05T01:49:05;57.17;;;21.52;;
62050;SDS011;48008;51.204;6.766;2022-12-05T01:51:36;54.78;;;21.63;;
62050;SDS011;48008;51.204;6.766;2022-12-05T01:54:05;53.67;;;21.77;;
62050;SDS011;48008;51.204;6.766;2022-12-05T01:56:34;51.65;;;22.08;;
62050;SDS011;48008;51.204;6.766;2022-12-05T01:59:02;53.17;;;21.02;;
62050;SDS011;48008;51.204;6.766;2022-12-05T02:01:30;47.83;;;20.92;;
62050;SDS011;48008;51.204;6.766;2022-12-05T02:03:57;53.60;;;21.55;;
62050;SDS011;48008;51.204;6.766;2022-12-05T02:06:25;61.08;;;22.48;;
62050;SDS011;48008;51.204;6.766;2022-12-05T02:08:53;50.08;;;21.75;;
62050;SDS011;48008;51.204;6.766;2022-12-05T02:11:20;54.88;;;21.58;;
62050;SDS011;48008;51.204;6.766;2022-12-05T02:14:01;54.00;;;20.55;;
62050;SDS011;48008;51.204;6.766;2022-12-05T02:22:29;50.63;;;20.33;;
62050;SDS011;48008;51.204;6.766;2022-12-05T02:25:24;54.63;;;19.48;;
62050;SDS011;48008;51.204;6.766;2022-12-05T02:31:14;53.72;;;20.67;;
62050;SDS011;48008;51.204;6.766;2022-12-05T02:33:46;53.67;;;19.60;;
62050;SDS011;48008;51.204;6.766;2022-12-05T02:36:26;47.60;;;20.17;;
62050;SDS011;48008;51.204;6.766;2022-12-05T02:39:06;48.65;;;20.60;;
62050;SDS011;48008;51.204;6.766;2022-12-05T02:41:51;52.63;;;20.85;;
62050;SDS011;48008;51.204;6.766;2022-12-05T02:44:30;49.55;;;21.45;;
62050;SDS011;48008;51.204;6.766;2022-12-05T02:47:01;51.55;;;20.27;;
62050;SDS011;48008;51.204;6.766;2022-12-05T02:49:32;47.20;;;20.45;;
62050;SDS011;48008;51.204;6.766;2022-12-05T02:52:02;53.83;;;20.02;;
62050;SDS011;48008;51.204;6.766;2022-12-05T02:54:32;47.00;;;19.88;;
62050;SDS011;48008;51.204;6.766;2022-12-05T02:57:04;44.08;;;18.92;;
62050;SDS011;48008;51.204;6.766;2022-12-05T02:59:33;48.45;;;19.52;;
62050;SDS011;48008;51.204;6.766;2022-12-05T03:02:00;51.70;;;19.98;;
62050;SDS011;48008;51.204;6.766;2022-12-05T03:04:27;47.17;;;20.92;;
62050;SDS011;48008;51.204;6.766;2022-12-05T03:06:57;46.15;;;20.45;;
62050;SDS011;48008;51.204;6.766;2022-12-05T03:09:43;51.45;;;21.48;;
62050;SDS011;48008;51.204;6.766;2022-12-05T03:12:17;48.25;;;20.20;;
62050;SDS011;48008;51.204;6.766;2022-12-05T03:14:53;48.35;;;20.33;;
62050;SDS011;48008;51.204;6.766;2022-12-05T03:17:29;48.00;;;18.98;;
62050;SDS011;48008;51.204;6.766;2022-12-05T03:20:04;44.17;;;19.45;;
62050;SDS011;48008;51.204;6.766;2022-12-05T03:22:36;47.05;;;19.85;;
62050;SDS011;48008;51.204;6.766;2022-12-05T03:25:24;45.72;;;19.80;;
62050;SDS011;48008;51.204;6.766;2022-12-05T03:28:03;44.67;;;19.17;;
62050;SDS011;48008;51.204;6.766;2022-12-05T03:30:41;48.88;;;19.33;;
62050;SDS011;48008;51.204;6.766;2022-12-05T03:33:09;51.90;;;21.67;;
62050;SDS011;48008;51.204;6.766;2022-12-05T03:38:52;54.42;;;20.50;;
62050;SDS011;48008;51.204;6.766;2022-12-05T03:41:13;50.47;;;20.65;;
62050;SDS011;48008;51.204;6.766;2022-12-05T03:43:52;49.97;;;20.08;;
62050;SDS011;48008;51.204;6.766;2022-12-05T03:46:26;51.92;;;20.60;;
62050;SDS011;48008;51.204;6.766;2022-12-05T03:49:00;50.97;;;21.25;;
62050;SDS011;48008;51.204;6.766;2022-12-05T03:51:49;50.80;;;19.85;;
62050;SDS011;48008;51.204;6.766;2022-12-05T03:54:27;44.78;;;19.55;;
62050;SDS011;48008;51.204;6.766;2022-12-05T03:57:01;49.03;;;21.17;;
62050;SDS011;48008;51.204;6.766;2022-12-05T03:59:34;47.88;;;20.63;;
62050;SDS011;48008;51.204;6.766;2022-12-05T04:02:07;52.53;;;21.88;;
62050;SDS011;48008;51.204;6.766;2022-12-05T04:04:47;47.83;;;21.88;;
62050;SDS011;48008;51.204;6.766;2022-12-05T04:07:19;52.03;;;22.10;;
62050;SDS011;48008;51.204;6.766;2022-12-05T04:09:49;53.75;;;21.20;;
62050;SDS011;48008;51.204;6.766;2022-12-05T04:12:23;55.42;;;21.85;;
62050;SDS011;48008;51.204;6.766;2022-12-05T04:14:55;52.47;;;21.45;;
62050;SDS011;48008;51.204;6.766;2022-12-05T04:17:27;51.10;;;22.08;;
62050;SDS011;48008;51.204;6.766;2022-12-05T04:20:01;48.83;;;20.67;;
62050;SDS011;48008;51.204;6.766;2022-12-05T04:22:51;55.63;;;21.80;;
62050;SDS011;48008;51.204;6.766;2022-12-05T04:25:18;46.15;;;21.02;;
62050;SDS011;48008;51.204;6.766;2022-12-05T04:31:10;55.53;;;21.05;;
62050;SDS011;48008;51.204;6.766;2022-12-05T04:33:42;49.08;;;21.38;;
62050;SDS011;48008;51.204;6.766;2022-12-05T04:36:18;48.88;;;21.75;;
62050;SDS011;48008;51.204;6.766;2022-12-05T04:38:57;52.42;;;21.88;;
62050;SDS011;48008;51.204;6.766;2022-12-05T04:41:31;47.63;;;20.45;;
62050;SDS011;48008;51.204;6.766;2022-12-05T04:44:04;50.47;;;21.92;;
62050;SDS011;48008;51.204;6.766;2022-12-05T04:46:34;53.90;;;21.70;;
62050;SDS011;48008;51.204;6.766;2022-12-05T04:49:04;48.25;;;21.38;;
62050;SDS011;48008;51.204;6.766;2022-12-05T04:51:35;53.50;;;21.27;;
62050;SDS011;48008;51.204;6.766;2022-12-05T04:54:07;44.30;;;20.88;;
62050;SDS011;48008;51.204;6.766;2022-12-05T04:56:40;47.45;;;21.23;;
62050;SDS011;48008;51.204;6.766;2022-12-05T04:59:09;48.95;;;20.45;;
62050;SDS011;48008;51.204;6.766;2022-12-05T05:01:38;47.28;;;21.15;;
62050;SDS011;48008;51.204;6.766;2022-12-05T05:04:12;49.17;;;21.02;;
62050;SDS011;48008;51.204;6.766;2022-12-05T05:06:42;45.58;;;19.98;;
62050;SDS011;48008;51.204;6.766;2022-12-05T05:09:09;46.90;;;20.00;;
62050;SDS011;48008;51.204;6.766;2022-12-05T05:11:37;44.10;;;20.10;;
62050;SDS011;48008;51.204;6.766;2022-12-05T05:14:03;45.00;;;19.67;;
62050;SDS011;48008;51.204;6.766;2022-12-05T05:16:32;45.55;;;20.10;;
62050;SDS011;48008;51.204;6.766;2022-12-05T05:19:00;43.75;;;20.40;;
62050;SDS011;48008;51.204;6.766;2022-12-05T05:21:28;44.78;;;19.63;;
62050;SDS011;48008;51.204;6.766;2022-12-05T05:23:57;48.00;;;19.42;;
62050;SDS011;48008;51.204;6.766;2022-12-05T05:26:25;44.50;;;19.70;;
62050;SDS011;48008;51.204;6.766;2022-12-05T05:28:53;44.65;;;19.15;;
62050;SDS011;48008;51.204;6.766;2022-12-05T05:31:21;43.58;;;20.20;;
62050;SDS011;48008;51.204;6.766;2022-12-05T05:33:48;45.15;;;20.17;;
62050;SDS011;48008;51.204;6.766;2022-12-05T05:36:16;41.05;;;19.15;;
62050;SDS011;48008;51.204;6.766;2022-12-05T05:38:44;41.03;;;19.10;;
62050;SDS011;48008;51.204;6.766;2022-12-05T05:41:15;45.67;;;19.23;;
62050;SDS011;48008;51.204;6.766;2022-12-05T05:43:43;40.25;;;18.85;;
62050;SDS011;48008;51.204;6.766;2022-12-05T05:46:11;41.22;;;19.45;;
62050;SDS011;48008;51.204;6.766;2022-12-05T05:48:39;46.53;;;20.38;;
62050;SDS011;48008;51.204;6.766;2022-12-05T05:51:07;43.28;;;20.00;;
62050;SDS011;48008;51.204;6.766;2022-12-05T05:53:37;47.75;;;20.13;;
62050;SDS011;48008;51.204;6.766;2022-12-05T05:56:04;43.92;;;21.27;;
62050;SDS011;48008;51.204;6.766;2022-12-05T05:58:34;41.88;;;19.42;;
62050;SDS011;48008;51.204;6.766;2022-12-05T06:01:02;46.10;;;19.95;;
62050;SDS011;48008;51.204;6.766;2022-12-05T06:03:32;46.72;;;21.05;;
62050;SDS011;48008;51.204;6.766;2022-12-05T06:06:00;48.53;;;20.55;;
62050;SDS011;48008;51.204;6.766;2022-12-05T06:08:31;51.13;;;20.35;;
62050;SDS011;48008;51.204;6.766;2022-12-05T06:11:08;43.40;;;20.38;;
62050;SDS011;48008;51.204;6.766;2022-12-05T06:13:39;46.25;;;20.52;;
62050;SDS011;48008;51.204;6.766;2022-12-05T06:16:06;44.90;;;21.15;;
62050;SDS011;48008;51.204;6.766;2022-12-05T06:18:35;47.10;;;19.73;;
62050;SDS011;48008;51.204;6.766;2022-12-05T06:21:02;44.92;;;19.88;;
62050;SDS011;48008;51.204;6.766;2022-12-05T06:23:31;43.55;;;20.13;;
62050;SDS011;48008;51.204;6.766;2022-12-05T06:25:58;44.03;;;21.80;;
62050;SDS011;48008;51.204;6.766;2022-12-05T06:28:24;47.80;;;20.45;;
62050;SDS011;48008;51.204;6.766;2022-12-05T06:30:51;39.45;;;18.55;;
62050;SDS011;48008;51.204;6.766;2022-12-05T06:33:19;46.63;;;19.20;;
62050;SDS011;48008;51.204;6.766;2022-12-05T06:35:46;48.22;;;20.55;;
62050;SDS011;48008;51.204;6.766;2022-12-05T06:38:13;44.22;;;20.33;;
62050;SDS011;48008;51.204;6.766;2022-12-05T06:40:40;48.17;;;19.77;;
62050;SDS011;48008;51.204;6.766;2022-12-05T06:43:08;43.88;;;19.65;;
62050;SDS011;48008;51.204;6.766;2022-12-05T06:45:37;43.95;;;19.83;;
62050;SDS011;48008;51.204;6.766;2022-12-05T06:48:04;41.45;;;19.70;;
62050;SDS011;48008;51.204;6.766;2022-12-05T06:50:32;47.40;;;20.73;;
62050;SDS011;48008;51.204;6.766;2022-12-05T06:52:59;44.63;;;20.10;;
62050;SDS011;48008;51.204;6.766;2022-12-05T06:55:25;46.17;;;19.10;;
62050;SDS011;48008;51.204;6.766;2022-12-05T06:57:52;40.83;;;18.27;;
62050;SDS011;48008;51.204;6.766;2022-12-05T07:00:19;39.75;;;18.88;;
62050;SDS011;48008;51.204;6.766;2022-12-05T07:03:06;41.65;;;20.42;;
62050;SDS011;48008;51.204;6.766;2022-12-05T07:05:32;43.42;;;19.95;;
62050;SDS011;48008;51.204;6.766;2022-12-05T07:07:59;40.58;;;19.25;;
62050;SDS011;48008;51.204;6.766;2022-12-05T07:10:26;42.13;;;19.42;;
62050;SDS011;48008;51.204;6.766;2022-12-05T07:12:52;45.03;;;19.25;;
62050;SDS011;48008;51.204;6.766;2022-12-05T07:15:19;43.10;;;18.80;;
62050;SDS011;48008;51.204;6.766;2022-12-05T07:17:46;42.22;;;19.05;;
62050;SDS011;48008;51.204;6.766;2022-12-05T07:20:13;41.58;;;19.00;;
62050;SDS011;48008;51.204;6.766;2022-12-05T07:22:43;36.13;;;18.27;;
62050;SDS011;48008;51.204;6.766;2022-12-05T07:25:11;41.88;;;18.30;;
62050;SDS011;48008;51.204;6.766;2022-12-05T07:27:38;39.20;;;17.90;;
62050;SDS011;48008;51.204;6.766;2022-12-05T07:30:05;38.08;;;17.55;;
62050;SDS011;48008;51.204;6.766;2022-12-05T07:32:32;36.92;;;17.13;;
62050;SDS011;48008;51.204;6.766;2022-12-05T07:35:00;37.30;;;17.35;;
62050;SDS011;48008;51.204;6.766;2022-12-05T07:37:26;36.92;;;17.00;;
62050;SDS011;48008;51.204;6.766;2022-12-05T07:39:53;38.88;;;17.55;;
62050;SDS011;48008;51.204;6.766;2022-12-05T07:42:20;39.88;;;18.17;;
62050;SDS011;48008;51.204;6.766;2022-12-05T07:44:47;37.50;;;18.17;;
62050;SDS011;48008;51.204;6.766;2022-12-05T07:47:14;37.63;;;17.45;;
62050;SDS011;48008;51.204;6.766;2022-12-05T07:49:40;34.17;;;16.73;;
62050;SDS011;48008;51.204;6.766;2022-12-05T07:52:07;36.78;;;17.30;;
62050;SDS011;48008;51.204;6.766;2022-12-05T07:54:35;35.78;;;16.98;;
62050;SDS011;48008;51.204;6.766;2022-12-05T07:57:02;36.95;;;16.73;;
62050;SDS011;48008;51.204;6.766;2022-12-05T07:59:29;39.60;;;17.20;;
62050;SDS011;48008;51.204;6.766;2022-12-05T08:01:55;37.03;;;17.73;;
62050;SDS011;48008;51.204;6.766;2022-12-05T08:04:22;37.63;;;16.60;;
62050;SDS011;48008;51.204;6.766;2022-12-05T08:06:49;37.30;;;17.48;;
62050;SDS011;48008;51.204;6.766;2022-12-05T08:09:15;36.65;;;17.67;;
62050;SDS011;48008;51.204;6.766;2022-12-05T08:11:42;35.63;;;16.38;;
62050;SDS011;48008;51.204;6.766;2022-12-05T08:14:11;32.80;;;16.58;;
62050;SDS011;48008;51.204;6.766;2022-12-05T08:16:38;34.92;;;17.02;;
62050;SDS011;48008;51.204;6.766;2022-12-05T08:19:06;32.75;;;16.90;;
62050;SDS011;48008;51.204;6.766;2022-12-05T08:21:34;36.47;;;17.25;;
62050;SDS011;48008;51.204;6.766;2022-12-05T08:24:03;33.05;;;16.38;;
62050;SDS011;48008;51.204;6.766;2022-12-05T08:26:31;33.45;;;16.77;;
62050;SDS011;48008;51.204;6.766;2022-12-05T08:29:00;32.33;;;15.50;;
62050;SDS011;48008;51.204;6.766;2022-12-05T08:31:30;33.65;;;16.20;;
62050;SDS011;48008;51.204;6.766;2022-12-05T08:33:58;30.85;;;16.15;;
62050;SDS011;48008;51.204;6.766;2022-12-05T08:36:26;34.28;;;16.55;;
62050;SDS011;48008;51.204;6.766;2022-12-05T08:38:55;33.58;;;15.93;;
62050;SDS011;48008;51.204;6.766;2022-12-05T08:41:23;32.90;;;16.52;;
62050;SDS011;48008;51.204;6.766;2022-12-05T08:43:55;34.85;;;16.38;;
62050;SDS011;48008;51.204;6.766;2022-12-05T08:46:23;30.70;;;15.38;;
62050;SDS011;48008;51.204;6.766;2022-12-05T08:48:51;32.03;;;14.95;;
62050;SDS011;48008;51.204;6.766;2022-12-05T08:51:17;32.42;;;15.68;;
62050;SDS011;48008;51.204;6.766;2022-12-05T08:53:44;31.77;;;15.48;;
62050;SDS011;48008;51.204;6.766;2022-12-05T08:56:11;32.05;;;16.23;;
62050;SDS011;48008;51.204;6.766;2022-12-05T08:58:38;35.00;;;16.55;;
62050;SDS011;48008;51.204;6.766;2022-12-05T09:01:06;39.53;;;17.45;;
62050;SDS011;48008;51.204;6.766;2022-12-05T09:03:36;37.55;;;17.52;;
62050;SDS011;48008;51.204;6.766;2022-12-05T09:06:05;34.35;;;17.05;;
62050;SDS011;48008;51.204;6.766;2022-12-05T09:08:35;34.55;;;17.33;;
62050;SDS011;48008;51.204;6.766;2022-12-05T09:11:04;35.63;;;17.17;;
62050;SDS011;48008;51.204;6.766;2022-12-05T09:13:32;39.15;;;18.00;;
62050;SDS011;48008;51.204;6.766;2022-12-05T09:16:03;37.45;;;17.27;;
62050;SDS011;48008;51.204;6.766;2022-12-05T09:18:58;35.20;;;16.25;;
62050;SDS011;48008;51.204;6.766;2022-12-05T09:21:27;39.50;;;18.05;;
62050;SDS011;48008;51.204;6.766;2022-12-05T09:23:56;41.05;;;19.63;;
62050;SDS011;48008;51.204;6.766;2022-12-05T09:26:24;34.45;;;17.25;;
62050;SDS011;48008;51.204;6.766;2022-12-05T09:28:53;32.50;;;16.63;;
62050;SDS011;48008;51.204;6.766;2022-12-05T09:31:20;37.53;;;18.20;;
62050;SDS011;48008;51.204;6.766;2022-12-05T09:33:50;35.33;;;16.25;;
62050;SDS011;48008;51.204;6.766;2022-12-05T09:36:18;36.80;;;16.98;;
62050;SDS011;48008;51.204;6.766;2022-12-05T09:38:47;35.03;;;18.02;;
62050;SDS011;48008;51.204;6.766;2022-12-05T09:41:17;36.70;;;17.73;;
62050;SDS011;48008;51.204;6.766;2022-12-05T09:44:37;34.75;;;16.50;;
62050;SDS011;48008;51.204;6.766;2022-12-05T09:50:14;34.55;;;17.05;;
62050;SDS011;48008;51.204;6.766;2022-12-05T09:53:03;38.00;;;17.85;;
62050;SDS011;48008;51.204;6.766;2022-12-05T09:55:48;37.00;;;17.40;;
62050;SDS011;48008;51.204;6.766;2022-12-05T09:58:20;35.60;;;17.75;;
62050;SDS011;48008;51.204;6.766;2022-12-05T10:00:57;36.83;;;16.17;;
62050;SDS011;48008;51.204;6.766;2022-12-05T10:03:31;32.05;;;16.02;;
62050;SDS011;48008;51.204;6.766;2022-12-05T10:06:22;32.58;;;16.83;;
62050;SDS011;48008;51.204;6.766;2022-12-05T10:15:00;34.15;;;15.63;;
62050;SDS011;48008;51.204;6.766;2022-12-05T10:17:35;31.35;;;15.35;;
62050;SDS011;48008;51.204;6.766;2022-12-05T10:20:12;35.13;;;16.60;;
62050;SDS011;48008;51.204;6.766;2022-12-05T10:23:02;30.35;;;15.35;;
62050;SDS011;48008;51.204;6.766;2022-12-05T10:25:37;32.13;;;15.07;;
62050;SDS011;48008;51.204;6.766;2022-12-05T10:28:10;33.78;;;15.77;;
62050;SDS011;48008;51.204;6.766;2022-12-05T10:30:43;35.95;;;16.63;;
62050;SDS011;48008;51.204;6.766;2022-12-05T10:33:15;35.42;;;16.45;;
62050;SDS011;48008;51.204;6.766;2022-12-05T10:35:47;29.85;;;16.45;;
62050;SDS011;48008;51.204;6.766;2022-12-05T10:38:23;28.30;;;15.13;;
62050;SDS011;48008;51.204;6.766;2022-12-05T10:40:54;33.13;;;15.68;;
62050;SDS011;48008;51.204;6.766;2022-12-05T10:43:26;27.77;;;14.55;;
62050;SDS011;48008;51.204;6.766;2022-12-05T10:45:55;31.52;;;15.10;;
62050;SDS011;48008;51.204;6.766;2022-12-05T10:48:23;33.53;;;15.00;;
62050;SDS011;48008;51.204;6.766;2022-12-05T10:50:51;26.35;;;14.10;;
62050;SDS011;48008;51.204;6.766;2022-12-05T10:53:25;28.10;;;14.32;;
62050;SDS011;48008;51.204;6.766;2022-12-05T10:55:54;27.10;;;13.95;;
62050;SDS011;48008;51.204;6.766;2022-12-05T10:58:52;32.08;;;14.50;;
62050;SDS011;48008;51.204;6.766;2022-12-05T11:01:21;27.45;;;14.60;;
62050;SDS011;48008;51.204;6.766;2022-12-05T11:03:54;25.42;;;14.73;;
62050;SDS011;48008;51.204;6.766;2022-12-05T11:06:24;31.08;;;16.42;;
62050;SDS011;48008;51.204;6.766;2022-12-05T11:08:54;28.85;;;16.13;;
62050;SDS011;48008;51.204;6.766;2022-12-05T11:11:32;28.15;;;14.07;;
62050;SDS011;48008;51.204;6.766;2022-12-05T11:14:00;28.63;;;15.80;;
62050;SDS011;48008;51.204;6.766;2022-12-05T11:16:30;30.45;;;15.88;;
62050;SDS011;48008;51.204;6.766;2022-12-05T11:19:17;33.00;;;16.80;;
62050;SDS011;48008;51.204;6.766;2022-12-05T11:21:52;36.05;;;17.67;;
62050;SDS011;48008;51.204;6.766;2022-12-05T11:24:36;32.03;;;17.20;;
62050;SDS011;48008;51.204;6.766;2022-12-05T11:27:23;33.60;;;16.90;;
62050;SDS011;48008;51.204;6.766;2022-12-05T11:30:01;35.05;;;17.30;;
62050;SDS011;48008;51.204;6.766;2022-12-05T11:32:40;35.60;;;17.42;;
62050;SDS011;48008;51.204;6.766;2022-12-05T11:37:55;31.50;;;17.48;;
62050;SDS011;48008;51.204;6.766;2022-12-05T11:40:27;33.50;;;16.80;;
62050;SDS011;48008;51.204;6.766;2022-12-05T11:43:10;29.70;;;15.27;;
62050;SDS011;48008;51.204;6.766;2022-12-05T11:48:44;27.70;;;15.00;;
62050;SDS011;48008;51.204;6.766;2022-12-05T11:57:40;26.10;;;14.23;;
62050;SDS011;48008;51.204;6.766;2022-12-05T12:00:35;25.63;;;14.30;;
62050;SDS011;48008;51.204;6.766;2022-12-05T12:03:33;28.15;;;14.32;;
62050;SDS011;48008;51.204;6.766;2022-12-05T12:06:22;25.65;;;14.48;;
62050;SDS011;48008;51.204;6.766;2022-12-05T12:09:00;29.33;;;14.43;;
62050;SDS011;48008;51.204;6.766;2022-12-05T12:11:37;26.08;;;13.60;;
62050;SDS011;48008;51.204;6.766;2022-12-05T12:14:23;26.85;;;14.60;;
62050;SDS011;48008;51.204;6.766;2022-12-05T12:20:03;27.35;;;14.15;;
62050;SDS011;48008;51.204;6.766;2022-12-05T12:23:00;25.90;;;13.63;;
62050;SDS011;48008;51.204;6.766;2022-12-05T12:25:43;26.42;;;13.57;;
62050;SDS011;48008;51.204;6.766;2022-12-05T12:28:28;22.70;;;12.40;;
62050;SDS011;48008;51.204;6.766;2022-12-05T12:31:16;23.92;;;12.88;;
62050;SDS011;48008;51.204;6.766;2022-12-05T12:34:14;23.20;;;12.20;;
62050;SDS011;48008;51.204;6.766;2022-12-05T12:37:03;22.95;;;12.63;;
62050;SDS011;48008;51.204;6.766;2022-12-05T12:39:59;22.05;;;12.15;;
62050;SDS011;48008;51.204;6.766;2022-12-05T12:42:45;22.23;;;12.73;;
62050;SDS011;48008;51.204;6.766;2022-12-05T12:45:26;23.35;;;12.77;;
62050;SDS011;48008;51.204;6.766;2022-12-05T12:51:01;22.08;;;12.50;;
62050;SDS011;48008;51.204;6.766;2022-12-05T12:53:43;23.90;;;13.32;;
62050;SDS011;48008;51.204;6.766;2022-12-05T12:56:23;23.47;;;12.37;;
62050;SDS011;48008;51.204;6.766;2022-12-05T12:59:07;23.17;;;12.57;;
62050;SDS011;48008;51.204;6.766;2022-12-05T13:01:45;23.60;;;12.50;;
62050;SDS011;48008;51.204;6.766;2022-12-05T13:04:24;26.15;;;13.23;;
62050;SDS011;48008;51.204;6.766;2022-12-05T13:07:00;22.92;;;12.50;;
62050;SDS011;48008;51.204;6.766;2022-12-05T13:09:37;24.92;;;12.82;;
62050;SDS011;48008;51.204;6.766;2022-12-05T13:12:10;24.25;;;13.40;;
62050;SDS011;48008;51.204;6.766;2022-12-05T13:14:49;24.55;;;12.88;;
62050;SDS011;48008;51.204;6.766;2022-12-05T13:17:19;24.15;;;12.45;;
62050;SDS011;48008;51.204;6.766;2022-12-05T13:19:49;25.85;;;13.90;;
62050;SDS011;48008;51.204;6.766;2022-12-05T13:22:18;25.42;;;12.68;;
62050;SDS011;48008;51.204;6.766;2022-12-05T13:24:50;25.10;;;13.48;;
62050;SDS011;48008;51.204;6.766;2022-12-05T13:27:18;22.13;;;12.70;;
62050;SDS011;48008;51.204;6.766;2022-12-05T13:29:48;23.13;;;13.38;;
62050;SDS011;48008;51.204;6.766;2022-12-05T13:32:33;22.02;;;13.20;;
62050;SDS011;48008;51.204;6.766;2022-12-05T13:35:09;25.75;;;14.48;;
62050;SDS011;48008;51.204;6.766;2022-12-05T13:37:43;23.40;;;13.68;;
62050;SDS011;48008;51.204;6.766;2022-12-05T13:40:32;28.52;;;13.40;;
62050;SDS011;48008;51.204;6.766;2022-12-05T13:43:24;23.23;;;13.07;;
62050;SDS011;48008;51.204;6.766;2022-12-05T13:46:00;24.85;;;12.90;;
62050;SDS011;48008;51.204;6.766;2022-12-05T13:48:39;23.17;;;13.07;;
62050;SDS011;48008;51.204;6.766;2022-12-05T13:51:12;21.40;;;13.20;;
62050;SDS011;48008;51.204;6.766;2022-12-05T13:53:48;23.90;;;12.93;;
62050;SDS011;48008;51.204;6.766;2022-12-05T13:56:28;22.85;;;13.23;;
62050;SDS011;48008;51.204;6.766;2022-12-05T13:59:54;25.25;;;12.88;;
62050;SDS011;48008;51.204;6.766;2022-12-05T14:05:36;25.33;;;13.52;;
62050;SDS011;48008;51.204;6.766;2022-12-05T14:11:11;26.98;;;13.95;;
62050;SDS011;48008;51.204;6.766;2022-12-05T14:13:39;24.50;;;13.50;;
62050;SDS011;48008;51.204;6.766;2022-12-05T14:19:03;24.67;;;14.02;;
62050;SDS011;48008;51.204;6.766;2022-12-05T14:21:45;27.52;;;13.90;;
62050;SDS011;48008;51.204;6.766;2022-12-05T14:24:38;30.15;;;14.60;;
62050;SDS011;48008;51.204;6.766;2022-12-05T14:27:18;27.40;;;13.70;;
62050;SDS011;48008;51.204;6.766;2022-12-05T14:29:58;25.27;;;14.35;;
62050;SDS011;48008;51.204;6.766;2022-12-05T14:32:31;27.10;;;13.98;;
62050;SDS011;48008;51.204;6.766;2022-12-05T14:37:52;30.10;;;15.07;;
62050;SDS011;48008;51.204;6.766;2022-12-05T14:40:54;29.58;;;15.48;;
62050;SDS011;48008;51.204;6.766;2022-12-05T14:43:17;28.58;;;14.48;;
62050;SDS011;48008;51.204;6.766;2022-12-05T14:46:01;27.65;;;14.75;;
62050;SDS011;48008;51.204;6.766;2022-12-05T14:48:31;28.50;;;15.00;;
62050;SDS011;48008;51.204;6.766;2022-12-05T14:54:06;33.60;;;14.93;;
62050;SDS011;48008;51.204;6.766;2022-12-05T14:56:40;27.27;;;14.70;;
62050;SDS011;48008;51.204;6.766;2022-12-05T14:59:21;27.88;;;15.23;;
62050;SDS011;48008;51.204;6.766;2022-12-05T15:01:56;31.80;;;15.98;;
62050;SDS011;48008;51.204;6.766;2022-12-05T15:04:42;27.83;;;15.63;;
62050;SDS011;48008;51.204;6.766;2022-12-05T15:07:16;30.75;;;15.13;;
62050;SDS011;48008;51.204;6.766;2022-12-05T15:09:51;27.88;;;14.98;;
62050;SDS011;48008;51.204;6.766;2022-12-05T15:12:38;29.58;;;15.38;;
62050;SDS011;48008;51.204;6.766;2022-12-05T15:15:41;25.83;;;14.93;;
62050;SDS011;48008;51.204;6.766;2022-12-05T15:18:08;32.28;;;15.90;;
62050;SDS011;48008;51.204;6.766;2022-12-05T15:20:48;28.25;;;15.20;;
62050;SDS011;48008;51.204;6.766;2022-12-05T15:26:59;32.78;;;15.82;;
62050;SDS011;48008;51.204;6.766;2022-12-05T15:31:52;30.83;;;15.65;;
62050;SDS011;48008;51.204;6.766;2022-12-05T15:34:29;29.33;;;15.38;;
62050;SDS011;48008;51.204;6.766;2022-12-05T15:37:49;30.35;;;16.33;;
62050;SDS011;48008;51.204;6.766;2022-12-05T15:40:13;36.13;;;16.05;;
62050;SDS011;48008;51.204;6.766;2022-12-05T15:42:44;28.15;;;15.20;;
62050;SDS011;48008;51.204;6.766;2022-12-05T15:47:51;31.65;;;16.17;;
62050;SDS011;48008;51.204;6.766;2022-12-05T15:50:25;29.05;;;16.13;;
62050;SDS011;48008;51.204;6.766;2022-12-05T15:53:01;31.02;;;15.52;;
62050;SDS011;48008;51.204;6.766;2022-12-05T15:55:35;32.53;;;15.90;;
62050;SDS011;48008;51.204;6.766;2022-12-05T15:58:12;30.50;;;15.93;;
62050;SDS011;48008;51.204;6.766;2022-12-05T16:00:48;28.83;;;15.80;;
62050;SDS011;48008;51.204;6.766;2022-12-05T16:03:19;34.08;;;17.05;;